createdAt,value
2022-12-18T00:00:07.673Z,80.53
2022-12-18T00:05:11.088Z,80.71
2022-12-18T00:10:15.364Z,80.74
2022-12-18T00:15:18.824Z,80.70
2022-12-18T00:20:26.716Z,80.34
2022-12-18T00:25:30.138Z,80.34
2022-12-18T00:30:33.496Z,80.32
2022-12-18T00:35:36.784Z,80.17
2022-12-18T00:40:40.215Z,80.05
2022-12-18T00:45:43.518Z,79.94
2022-12-18T00:50:46.963Z,79.81
2022-12-18T00:55:50.242Z,79.95
2022-12-18T01:00:53.885Z,80.06
2022-12-18T01:05:57.297Z,80.15
2022-12-18T01:11:00.607Z,80.13
2022-12-18T01:16:04.152Z,80.16
2022-12-18T01:21:13.811Z,80.06
2022-12-18T01:26:17.604Z,79.79
2022-12-18T01:31:24.347Z,79.89
2022-12-18T01:36:30.858Z,79.77
2022-12-18T01:41:54.193Z,79.67
2022-12-18T01:46:57.479Z,79.70
2022-12-18T01:52:00.804Z,79.50
2022-12-18T01:57:04.287Z,79.30
2022-12-18T02:02:08.954Z,78.76
2022-12-18T02:07:36.830Z,78.87
2022-12-18T02:12:58.317Z,79.03
2022-12-18T02:18:11.788Z,79.33
2022-12-18T02:23:36.733Z,79.27
2022-12-18T02:29:15.515Z,79.32
2022-12-18T02:34:21.459Z,79.41
2022-12-18T02:39:28.261Z,79.51
2022-12-18T02:44:31.590Z,79.71
2022-12-18T02:50:12.126Z,79.85
2022-12-18T02:55:21.693Z,79.89
2022-12-18T03:00:34.944Z,79.82
2022-12-18T03:05:48.644Z,79.82
2022-12-18T03:11:01.148Z,79.88
2022-12-18T03:16:09.486Z,79.81
2022-12-18T03:21:14.966Z,79.64
2022-12-18T03:26:23.172Z,79.66
2022-12-18T03:31:29.901Z,79.68
2022-12-18T03:36:33.552Z,79.66
2022-12-18T03:42:01.864Z,79.82
2022-12-18T03:47:16.481Z,79.93
2022-12-18T03:52:36.749Z,80.05
2022-12-18T03:57:44.282Z,80.22
2022-12-18T04:02:53.394Z,80.22
2022-12-18T04:07:58.242Z,80.17
2022-12-18T04:13:01.617Z,80.25
2022-12-18T04:18:05.039Z,80.17
2022-12-18T04:23:08.399Z,80.19
2022-12-18T04:28:11.892Z,80.11
2022-12-18T04:33:15.653Z,80.19
2022-12-18T04:38:19.421Z,80.30
2022-12-18T04:43:22.766Z,80.48
2022-12-18T04:48:26.875Z,80.57
2022-12-18T04:53:30.269Z,80.64
2022-12-18T04:58:33.622Z,80.63
2022-12-18T05:03:38.641Z,80.66
2022-12-18T05:08:42.252Z,80.35
2022-12-18T05:13:46.709Z,80.18
2022-12-18T05:18:50.003Z,80.35
2022-12-18T05:23:53.337Z,80.53
2022-12-18T05:28:56.613Z,80.43
2022-12-18T05:33:59.906Z,80.45
2022-12-18T05:39:03.345Z,80.18
2022-12-18T05:44:07.218Z,80.21
2022-12-18T05:49:10.518Z,80.18
2022-12-18T05:54:13.848Z,80.47
2022-12-18T05:59:17.078Z,80.46
2022-12-18T06:04:20.507Z,80.46
2022-12-18T06:09:24.512Z,80.54
2022-12-18T06:14:27.895Z,80.60
2022-12-18T06:19:31.181Z,80.67
2022-12-18T06:24:34.551Z,80.60
2022-12-18T06:29:37.812Z,80.56
2022-12-18T06:34:41.162Z,80.67
2022-12-18T06:39:44.839Z,80.55
2022-12-18T06:44:48.413Z,80.54
2022-12-18T06:49:51.734Z,80.81
2022-12-18T06:54:55.120Z,81.10
2022-12-18T06:59:58.375Z,81.35
2022-12-18T07:05:07.474Z,81.33
2022-12-18T07:10:16.950Z,81.70
2022-12-18T07:15:20.231Z,81.66
2022-12-18T07:20:23.609Z,81.61
2022-12-18T07:25:26.982Z,81.58
2022-12-18T07:30:30.401Z,81.68
2022-12-18T07:35:35.285Z,81.65
2022-12-18T07:40:38.832Z,81.59
2022-12-18T07:45:44.539Z,81.45
2022-12-18T07:50:48.218Z,81.49
2022-12-18T07:56:25.948Z,81.26
2022-12-18T08:01:24.007Z,80.99
2022-12-18T08:06:27.579Z,81.08
2022-12-18T08:11:31.340Z,80.92
2022-12-18T08:16:34.949Z,79.73
2022-12-18T08:21:38.999Z,78.72
2022-12-18T08:26:45.578Z,79.10
2022-12-18T08:31:55.575Z,79.77
2022-12-18T08:36:58.968Z,79.22
2022-12-18T08:42:21.374Z,79.52
2022-12-18T08:47:24.954Z,79.00
2022-12-18T08:52:29.521Z,78.88
2022-12-18T08:57:32.873Z,77.67
2022-12-18T09:02:36.453Z,77.70
2022-12-18T09:07:40.219Z,77.57
2022-12-18T09:12:43.635Z,77.40
2022-12-18T09:17:47.078Z,77.48
2022-12-18T09:22:51.099Z,77.37
2022-12-18T09:27:54.318Z,76.89
2022-12-18T09:32:58.653Z,75.37
2022-12-18T09:38:01.990Z,76.13
2022-12-18T09:43:08.205Z,76.39
2022-12-18T09:48:21.252Z,76.15
2022-12-18T09:53:29.772Z,76.83
2022-12-18T09:58:42.115Z,76.98
2022-12-18T10:03:45.849Z,76.21
2022-12-18T10:09:16.951Z,74.80
2022-12-18T10:14:45.922Z,74.58
2022-12-18T10:19:55.023Z,75.04
2022-12-18T10:25:08.541Z,73.24
2022-12-18T10:30:18.334Z,74.56
2022-12-18T10:35:25.522Z,74.45
2022-12-18T10:40:29.018Z,73.78
2022-12-18T10:45:32.469Z,74.06
2022-12-18T10:56:06.186Z,73.01
2022-12-18T11:01:14.768Z,71.75
2022-12-18T11:06:23.155Z,71.97
2022-12-18T11:11:27.063Z,72.12
2022-12-18T11:16:36.354Z,72.27
2022-12-18T11:21:44.261Z,72.97
2022-12-18T11:26:47.885Z,72.74
2022-12-18T11:31:51.327Z,73.24
2022-12-18T11:36:56.100Z,72.88
2022-12-18T11:42:10.261Z,73.20
2022-12-18T11:47:27.452Z,73.03
2022-12-18T11:52:52.866Z,73.24
2022-12-18T11:58:31.313Z,73.43
2022-12-18T12:04:00.642Z,73.73
2022-12-18T12:09:22.707Z,73.80
2022-12-18T12:14:47.595Z,73.95
2022-12-18T12:20:13.835Z,74.01
2022-12-18T12:25:32.192Z,74.49
2022-12-18T12:31:03.333Z,74.07
2022-12-18T12:36:35.714Z,74.39
2022-12-18T12:42:01.426Z,74.72
2022-12-18T12:47:44.008Z,74.84
2022-12-18T12:52:52.442Z,75.02
2022-12-18T12:58:04.992Z,75.00
2022-12-18T13:03:25.451Z,75.01
2022-12-18T13:08:33.288Z,75.07
2022-12-18T13:13:58.164Z,75.43
2022-12-18T13:19:02.424Z,75.60
2022-12-18T13:24:28.641Z,76.11
2022-12-18T13:29:45.102Z,76.17
2022-12-18T13:34:48.925Z,76.47
2022-12-18T13:39:52.379Z,76.71
2022-12-18T13:44:55.936Z,77.08
2022-12-18T13:50:00.382Z,76.43
2022-12-18T13:55:08.240Z,77.01
2022-12-18T14:00:31.492Z,77.44
2022-12-18T14:05:40.233Z,77.89
2022-12-18T14:10:50.796Z,78.02
2022-12-18T14:15:55.373Z,78.44
2022-12-18T14:21:03.278Z,79.35
2022-12-18T14:26:24.712Z,80.34
2022-12-18T14:31:30.708Z,80.52
2022-12-18T14:36:34.260Z,80.57
2022-12-18T14:41:37.736Z,80.87
2022-12-18T14:46:44.149Z,81.01
2022-12-18T14:51:51.552Z,81.36
2022-12-18T14:57:06.678Z,81.75
2022-12-18T15:02:27.069Z,81.34
2022-12-18T15:07:46.785Z,81.31
2022-12-18T15:12:51.762Z,81.31
2022-12-18T15:17:59.765Z,81.21
2022-12-18T15:23:03.091Z,81.12
2022-12-18T15:28:37.852Z,81.02
2022-12-18T15:33:54.329Z,81.37
2022-12-18T15:39:05.056Z,81.59
2022-12-18T15:44:39.195Z,81.36
2022-12-18T15:49:42.449Z,81.54
2022-12-18T15:55:04.789Z,81.63
2022-12-18T16:00:13.365Z,81.67
2022-12-18T16:05:18.993Z,81.85
2022-12-18T16:10:22.866Z,81.74
2022-12-18T16:15:26.199Z,81.76
2022-12-18T16:20:29.524Z,81.66
2022-12-18T16:25:33.147Z,81.65
2022-12-18T16:30:37.832Z,81.80
2022-12-18T16:35:42.035Z,82.05
2022-12-18T16:41:05.027Z,81.86
2022-12-18T16:46:08.426Z,81.85
2022-12-18T16:51:11.766Z,81.68
2022-12-18T16:56:15.043Z,81.49
2022-12-18T17:01:18.669Z,81.59
2022-12-18T17:06:23.127Z,81.93
2022-12-18T17:11:28.209Z,81.83
2022-12-18T17:16:32.762Z,81.67
2022-12-18T17:21:37.158Z,81.83
2022-12-18T17:26:42.130Z,81.72
2022-12-18T17:31:45.687Z,81.66
2022-12-18T17:36:49.039Z,81.78
2022-12-18T17:41:52.605Z,81.83
2022-12-18T17:46:56.557Z,81.68
2022-12-18T17:51:59.905Z,81.51
2022-12-18T17:57:03.227Z,81.51
2022-12-18T18:02:10.277Z,81.54
2022-12-18T18:07:14.396Z,81.38
2022-12-18T18:12:36.611Z,81.14
2022-12-18T18:17:40.114Z,80.91
2022-12-18T18:22:45.363Z,80.90
2022-12-18T18:27:48.706Z,80.71
2022-12-18T18:32:53.120Z,80.37
2022-12-18T18:37:57.848Z,80.09
2022-12-18T18:43:01.101Z,79.45
2022-12-18T18:48:06.288Z,79.06
2022-12-18T18:53:09.693Z,78.82
2022-12-18T18:58:13.153Z,78.84
2022-12-18T19:03:17.113Z,78.77
2022-12-18T19:08:24.098Z,79.35
2022-12-18T19:13:30.761Z,79.66
2022-12-18T19:18:35.609Z,79.06
2022-12-18T19:23:39.396Z,79.39
2022-12-18T19:28:46.461Z,78.92
2022-12-18T19:33:49.791Z,78.85
2022-12-18T19:38:55.136Z,78.71
2022-12-18T19:43:58.933Z,78.93
2022-12-18T19:49:02.654Z,78.68
2022-12-18T19:54:06.143Z,78.98
2022-12-18T19:59:10.334Z,79.09
2022-12-18T20:04:13.785Z,79.01
2022-12-18T20:09:18.423Z,78.85
2022-12-18T20:14:23.710Z,80.20
2022-12-18T20:19:27.383Z,69.69
2022-12-18T20:24:34.422Z,60.98
2022-12-18T20:29:37.858Z,56.65
2022-12-18T20:34:41.552Z,54.80
2022-12-18T20:39:45.319Z,54.02
2022-12-18T20:44:48.653Z,51.37
2022-12-18T20:49:52.133Z,47.68
2022-12-18T20:54:55.872Z,47.24
2022-12-18T21:00:00.929Z,45.47
2022-12-18T21:05:05.062Z,42.70
2022-12-18T21:10:08.821Z,41.96
2022-12-18T21:15:12.399Z,42.88
2022-12-18T21:20:17.999Z,44.61
2022-12-18T21:25:22.528Z,43.99
2022-12-18T21:30:25.950Z,41.42
2022-12-18T21:35:29.430Z,39.33
2022-12-18T21:40:35.856Z,38.48
2022-12-18T21:45:41.575Z,37.44
2022-12-18T21:50:45.914Z,37.04
2022-12-18T21:55:58.445Z,36.56
2022-12-18T22:01:02.378Z,37.43
2022-12-18T22:06:09.680Z,38.93
2022-12-18T22:11:13.840Z,38.83
2022-12-18T22:16:18.018Z,38.22
2022-12-18T22:21:34.222Z,37.90
2022-12-18T22:26:40.127Z,40.00
2022-12-18T22:31:44.297Z,40.23
2022-12-18T22:36:49.110Z,40.78
2022-12-18T22:41:53.166Z,41.79
2022-12-18T22:47:06.487Z,45.29
2022-12-18T22:52:10.812Z,46.31
2022-12-18T22:57:14.219Z,45.78
2022-12-18T23:02:19.422Z,45.05
2022-12-18T23:07:23.132Z,42.67
2022-12-18T23:12:26.381Z,40.98
2022-12-18T23:17:30.063Z,38.80
2022-12-18T23:22:33.326Z,38.79
2022-12-18T23:27:36.588Z,42.14
2022-12-18T23:32:41.641Z,47.09
2022-12-18T23:38:02.121Z,51.23
2022-12-18T23:43:05.447Z,52.19
2022-12-18T23:48:08.776Z,55.03
2022-12-18T23:53:12.914Z,60.12
2022-12-18T23:58:21.399Z,56.50
